Time;durP1;ratioP1;P1;durP2;ratioP2;P2;SDS_P1;SDS_P2;PMS_P1;PMS_P2;Temp;Humidity;BMP_temperature;BMP_pressure;BME280_temperature;BME280_humidity;BME280_pressure;Samples;Min_cycle;Max_cycle;Signal;HPM_P1;HPM_P2
2022/04/29 00:00:22;;;;;;;0.10;0.10;;;;;;;20.97;39.59;102504.03;5101275;28;20079;-29
2022/04/29 00:02:48;;;;;;;0.20;0.20;;;;;;;20.98;39.66;102497.44;5121001;28;20090;-32
2022/04/29 00:05:16;;;;;;;0.10;0.10;;;;;;;20.98;39.66;102505.72;5119296;28;20043;-32
2022/04/29 00:07:44;;;;;;;0.10;0.10;;;;;;;20.99;39.43;102501.03;5120832;28;20043;-29
2022/04/29 00:10:13;;;;;;;0.10;0.10;;;;;;;20.97;39.49;102501.25;5123015;27;20091;-30
2022/04/29 00:12:41;;;;;;;0.10;0.10;;;;;;;20.99;39.65;102506.56;5124518;28;20146;-31
2022/04/29 00:15:08;;;;;;;0.20;0.20;;;;;;;20.97;39.49;102506.81;5105763;28;20089;-30
2022/04/29 00:17:34;;;;;;;0.10;0.10;;;;;;;20.97;39.68;102497.66;5122990;28;20481;-30
2022/04/29 00:19:59;;;;;;;0.20;0.20;;;;;;;20.98;39.60;102500.19;5121100;28;20047;-30
2022/04/29 00:22:25;;;;;;;0.20;0.20;;;;;;;20.97;39.75;102486.59;5126225;28;20085;-29
2022/04/29 00:24:51;;;;;;;0.10;0.10;;;;;;;20.96;39.60;102494.06;5124247;28;20039;-30
2022/04/29 00:27:17;;;;;;;0.10;0.10;;;;;;;20.97;39.59;102481.03;5119940;28;20700;-30
2022/04/29 00:29:42;;;;;;;0.10;0.10;;;;;;;20.97;39.61;102478.28;5122485;28;20108;-30
2022/04/29 00:32:08;;;;;;;0.10;0.10;;;;;;;20.96;39.83;102480.22;5104352;28;20047;-30
2022/04/29 00:34:34;;;;;;;0.20;0.20;;;;;;;20.96;39.60;102480.22;5124795;28;20054;-31
2022/04/29 00:37:00;;;;;;;0.10;0.10;;;;;;;20.96;39.78;102479.38;5125865;28;20079;-31
2022/04/29 00:39:25;;;;;;;0.20;0.20;;;;;;;20.96;39.66;102480.22;5124943;28;20043;-30
2022/04/29 00:41:51;;;;;;;0.10;0.10;;;;;;;20.96;39.57;102476.59;5108164;28;20427;-31
2022/04/29 00:44:17;;;;;;;0.20;0.20;;;;;;;20.96;39.62;102473.84;5102258;28;20048;-30
2022/04/29 00:46:45;;;;;;;0.10;0.10;;;;;;;20.97;39.69;102472.75;5100674;28;20384;-31
2022/04/29 00:49:13;;;;;;;0.10;0.10;;;;;;;20.96;39.46;102455.28;5118609;28;20073;-31
2022/04/29 00:51:41;;;;;;;0.10;0.10;;;;;;;20.96;39.64;102457.22;5123685;28;20129;-29
2022/04/29 00:54:09;;;;;;;0.10;0.10;;;;;;;20.96;39.64;102446.13;5121395;28;20086;-30
2022/04/29 00:56:37;;;;;;;0.10;0.10;;;;;;;20.96;39.77;102451.69;5120895;28;20070;-31
2022/04/29 00:59:09;;;;;;;;;;;;;;;20.95;39.62;102453.63;5122843;28;20135;-31
2022/04/29 01:01:36;;;;;;;0.20;0.20;;;;;;;20.95;39.61;102450.00;5121878;28;20866;-32
2022/04/29 01:04:03;;;;;;;0.10;0.10;;;;;;;20.95;39.74;102444.47;5122369;28;20043;-30
2022/04/29 01:06:29;;;;;;;0.10;0.10;;;;;;;20.95;39.68;102450.84;5117576;28;20371;-31
2022/04/29 01:08:55;;;;;;;0.10;0.10;;;;;;;20.95;39.88;102445.31;5120588;28;20074;-30
2022/04/29 01:11:23;;;;;;;0.20;0.20;;;;;;;20.95;39.76;102450.84;5121393;28;20099;-31
2022/04/29 01:13:50;;;;;;;0.10;0.10;;;;;;;20.95;39.59;102445.31;5120985;28;20124;-32
2022/04/29 01:16:17;;;;;;;0.10;0.10;;;;;;;20.94;39.65;102446.41;5122816;28;20039;-31
2022/04/29 01:18:43;;;;;;;0.10;0.10;;;;;;;20.94;39.62;102446.41;5116358;28;20170;-30
2022/04/29 01:21:09;;;;;;;0.20;0.20;;;;;;;20.95;39.66;102438.94;5114061;27;20135;-30
2022/04/29 01:23:35;;;;;;;0.20;0.20;;;;;;;20.94;39.78;102429.78;5127346;27;20070;-31
2022/04/29 01:26:02;;;;;;;0.10;0.10;;;;;;;20.94;39.83;102426.16;5097852;28;20067;-30
2022/04/29 01:28:29;;;;;;;0.10;0.10;;;;;;;20.94;39.71;102421.47;5120876;28;20046;-30
2022/04/29 01:30:55;;;;;;;0.20;0.20;;;;;;;20.94;39.64;102423.38;5100539;28;20085;-30
2022/04/29 01:33:21;;;;;;;0.10;0.10;;;;;;;20.94;39.62;102421.47;5121224;28;20356;-30
2022/04/29 01:35:47;;;;;;;0.20;0.20;;;;;;;20.94;39.65;102426.16;5119031;28;20120;-30
2022/04/29 01:38:12;;;;;;;0.20;0.20;;;;;;;20.95;39.79;102427.84;5123121;28;20049;-29
2022/04/29 01:40:38;;;;;;;0.20;0.20;;;;;;;20.95;39.88;102430.63;5123678;28;20208;-31
2022/04/29 01:43:04;;;;;;;0.20;0.20;;;;;;;20.94;39.65;102423.38;5123830;28;20051;-32
2022/04/29 01:45:29;;;;;;;0.10;0.10;;;;;;;20.93;39.75;102422.56;5119454;28;20405;-29
2022/04/29 01:47:55;;;;;;;0.20;0.20;;;;;;;20.94;39.73;102420.63;5120775;28;20047;-33
2022/04/29 01:50:20;;;;;;;0.10;0.10;;;;;;;20.94;39.81;102428.94;5118677;28;20055;-31
2022/04/29 01:52:46;;;;;;;0.10;0.10;;;;;;;20.94;39.52;102424.25;5120717;28;20042;-30
2022/04/29 01:55:12;;;;;;;0.20;0.20;;;;;;;20.94;39.69;102420.63;5118461;28;20088;-30
2022/04/29 01:57:37;;;;;;;0.20;0.20;;;;;;;20.94;39.69;102417.84;5126805;28;20047;-31
2022/04/29 02:00:04;;;;;;;0.20;0.20;;;;;;;20.94;39.63;102423.38;5117567;28;20047;-30
2022/04/29 02:02:30;;;;;;;0.10;0.10;;;;;;;20.94;39.83;102423.38;5102892;28;20535;-31
2022/04/29 02:04:56;;;;;;;0.20;0.20;;;;;;;20.93;39.29;102419.78;5118552;28;20043;-30
2022/04/29 02:07:22;;;;;;;0.10;0.10;;;;;;;20.93;39.72;102418.94;5122479;28;20547;-30
2022/04/29 02:09:47;;;;;;;0.20;0.20;;;;;;;20.93;39.70;102422.56;5118915;28;20046;-31
2022/04/29 02:12:15;;;;;;;0.20;0.20;;;;;;;20.92;39.52;102412.56;5122171;28;20043;-32
2022/04/29 02:14:42;;;;;;;0.15;0.15;;;;;;;20.92;39.63;102415.34;5105528;28;20122;-32
2022/04/29 02:17:09;;;;;;;0.10;0.10;;;;;;;20.93;39.77;102411.47;5101837;28;20079;-29
2022/04/29 02:19:35;;;;;;;0.10;0.10;;;;;;;20.93;39.87;102405.09;5119456;28;20118;-30
2022/04/29 02:22:04;;;;;;;0.20;0.20;;;;;;;20.92;39.75;102409.81;5125836;27;20050;-30
2022/04/29 02:24:30;;;;;;;0.20;0.20;;;;;;;20.93;39.75;102410.66;5103964;28;20142;-30
2022/04/29 02:26:57;;;;;;;0.20;0.20;;;;;;;20.93;39.67;102408.72;5118040;28;20382;-29
2022/04/29 02:29:22;;;;;;;0.20;0.20;;;;;;;20.92;39.87;102409.81;5119828;28;20130;-29
2022/04/29 02:31:49;;;;;;;0.20;0.20;;;;;;;20.92;39.94;102414.50;5123010;28;20046;-31
2022/04/29 02:34:15;;;;;;;0.20;0.20;;;;;;;20.93;39.70;102417.00;5119413;27;20486;-31
2022/04/29 02:36:41;;;;;;;0.20;0.20;;;;;;;20.92;39.73;102407.03;5103635;28;20127;-29
2022/04/29 02:39:08;;;;;;;0.20;0.20;;;;;;;20.93;39.89;102411.47;5123283;28;20051;-30
2022/04/29 02:41:33;;;;;;;0.20;0.20;;;;;;;20.91;39.83;102408.13;5123300;28;20126;-34
2022/04/29 02:43:59;;;;;;;0.13;0.13;;;;;;;20.91;39.63;102402.59;5100413;28;20051;-30
2022/04/29 02:46:24;;;;;;;0.20;0.20;;;;;;;20.92;39.91;102403.44;5118445;28;20043;-30
2022/04/29 02:48:50;;;;;;;0.13;0.13;;;;;;;20.92;39.72;102408.97;5115274;28;20099;-32
2022/04/29 02:51:16;;;;;;;0.20;0.20;;;;;;;20.92;39.80;102403.44;5121931;28;20040;-30
2022/04/29 02:53:43;;;;;;;0.20;0.20;;;;;;;20.91;39.69;102404.53;5121259;28;20052;-29
2022/04/29 02:56:08;;;;;;;0.20;0.20;;;;;;;20.92;39.66;102400.66;5122923;28;20074;-30
2022/04/29 02:58:34;;;;;;;0.15;0.15;;;;;;;20.91;39.65;102399.00;5116271;28;20047;-32
2022/04/29 03:01:01;;;;;;;0.17;0.17;;;;;;;20.92;39.61;102403.44;5123037;28;20039;-30
2022/04/29 03:03:27;;;;;;;0.20;0.20;;;;;;;20.91;39.89;102394.28;5120794;28;20491;-31
2022/04/29 03:05:53;;;;;;;0.20;0.20;;;;;;;20.91;39.73;102399.84;5103718;28;20089;-30
2022/04/29 03:08:18;;;;;;;0.13;0.13;;;;;;;20.91;39.63;102405.38;5121290;28;20043;-31
2022/04/29 03:10:46;;;;;;;0.20;0.20;;;;;;;20.90;39.99;102400.94;5121024;28;20077;-31
2022/04/29 03:13:13;;;;;;;0.10;0.10;;;;;;;20.90;39.90;102398.16;5119687;28;20134;-30
2022/04/29 03:15:38;;;;;;;0.20;0.20;;;;;;;20.90;39.66;102400.94;5119474;28;20074;-30
2022/04/29 03:18:21;;;;;;;0.20;0.20;;;;;;;20.90;40.00;102400.94;5123497;28;20100;-29
2022/04/29 03:20:48;;;;;;;0.10;0.10;;;;;;;20.91;39.82;102396.22;5115317;28;20082;-31
2022/04/29 03:23:14;;;;;;;0.10;0.10;;;;;;;20.91;39.79;102401.78;5122240;28;20480;-30
2022/04/29 03:25:40;;;;;;;0.10;0.10;;;;;;;20.89;39.71;102396.47;5122004;28;20054;-33
2022/04/29 03:28:06;;;;;;;0.10;0.10;;;;;;;20.90;39.90;102400.94;5101464;28;20058;-30
2022/04/29 03:30:32;;;;;;;0.10;0.10;;;;;;;20.90;39.87;102391.78;5122075;28;20066;-31
2022/04/29 03:32:59;;;;;;;0.10;0.10;;;;;;;20.90;39.78;102380.72;5123213;28;20079;-31
2022/04/29 03:35:25;;;;;;;0.10;0.10;;;;;;;20.89;39.71;102387.31;5122098;28;20122;-30
2022/04/29 03:37:52;;;;;;;0.10;0.10;;;;;;;20.90;39.90;102386.25;5123987;27;20094;-30
2022/04/29 03:40:21;;;;;;;0.13;0.13;;;;;;;20.90;39.91;102387.09;5115152;28;20044;-30
2022/04/29 03:42:48;;;;;;;0.20;0.20;;;;;;;20.88;39.93;102378.19;5120243;28;20185;-30
2022/04/29 03:45:14;;;;;;;0.20;0.20;;;;;;;20.89;39.97;102388.16;5122924;27;20079;-30
2022/04/29 03:47:41;;;;;;;0.20;0.20;;;;;;;20.89;39.88;102382.63;5124772;28;20082;-31
2022/04/29 03:50:07;;;;;;;0.20;0.20;;;;;;;20.89;39.85;102381.78;5125383;28;20086;-30
2022/04/29 03:52:32;;;;;;;0.20;0.20;;;;;;;20.90;39.95;102380.72;5123583;28;20061;-29
2022/04/29 03:54:58;;;;;;;0.10;0.10;;;;;;;20.89;39.98;102381.78;5101412;28;20047;-30
2022/04/29 03:57:24;;;;;;;0.17;0.17;;;;;;;20.89;39.90;102379.84;5124465;27;20431;-30
2022/04/29 03:59:49;;;;;;;0.30;0.30;;;;;;;20.88;40.31;102369.88;5124930;28;20051;-30
2022/04/29 04:02:16;;;;;;;0.10;0.10;;;;;;;20.90;39.46;102377.94;5125886;28;20035;-32
2022/04/29 04:04:42;;;;;;;0.10;0.10;;;;;;;20.89;39.91;102384.56;5121504;28;20055;-30
2022/04/29 04:07:07;;;;;;;0.20;0.20;;;;;;;20.89;39.78;102382.63;5122469;28;20047;-30
2022/04/29 04:09:33;;;;;;;0.20;0.20;;;;;;;20.89;39.90;102381.78;5118934;28;20470;-30
2022/04/29 04:11:59;;;;;;;0.10;0.10;;;;;;;20.89;39.92;102385.38;5124312;28;20044;-30
2022/04/29 04:14:24;;;;;;;0.10;0.10;;;;;;;20.89;39.95;102387.31;5121440;28;20054;-30
2022/04/29 04:16:50;;;;;;;0.20;0.20;;;;;;;20.89;39.77;102387.31;5125083;28;20048;-30
2022/04/29 04:19:16;;;;;;;0.20;0.20;;;;;;;20.89;39.80;102390.09;5124627;28;20043;-30
2022/04/29 04:21:42;;;;;;;0.20;0.20;;;;;;;20.89;39.93;102390.09;5125075;28;20043;-32
2022/04/29 04:24:08;;;;;;;0.10;0.10;;;;;;;20.88;39.79;102389.25;5119532;28;20478;-32
2022/04/29 04:26:34;;;;;;;0.15;0.15;;;;;;;20.88;39.90;102385.66;5127455;28;20067;-31
2022/04/29 04:29:01;;;;;;;0.10;0.10;;;;;;;20.88;39.91;102385.66;5100482;28;20047;-31
2022/04/29 04:31:26;;;;;;;0.20;0.20;;;;;;;20.89;39.89;102387.31;5121910;28;20094;-31
2022/04/29 04:33:52;;;;;;;0.20;0.20;;;;;;;20.88;39.95;102383.72;5117083;28;20383;-32
2022/04/29 04:36:18;;;;;;;0.10;0.10;;;;;;;20.87;40.18;102379.28;5124410;28;20040;-31
2022/04/29 04:38:47;;;;;;;0.10;0.10;;;;;;;20.88;39.76;102386.50;5084944;28;20077;-31
2022/04/29 04:41:14;;;;;;;;;;;;;;;20.88;39.77;102380.13;5122130;28;20149;-30
2022/04/29 04:43:40;;;;;;;0.10;0.10;;;;;;;20.87;40.06;102382.06;5116230;28;20414;-31
2022/04/29 04:46:06;;;;;;;0.10;0.10;;;;;;;20.87;39.97;102384.00;5124258;28;20046;-30
2022/04/29 04:48:32;;;;;;;0.10;0.10;;;;;;;20.87;39.90;102387.59;5116459;28;20431;-30
2022/04/29 04:51:01;;;;;;;0.10;0.10;;;;;;;20.86;40.02;102394.22;5128192;28;20478;-29
2022/04/29 04:53:27;;;;;;;0.20;0.20;;;;;;;20.88;39.88;102394.81;5123217;28;20082;-31
2022/04/29 04:55:53;;;;;;;0.10;0.10;;;;;;;20.87;40.01;102387.59;5123436;28;20133;-32
2022/04/29 04:58:18;;;;;;;0.10;0.10;;;;;;;20.86;39.48;102383.16;5120969;27;20047;-31
2022/04/29 05:00:44;;;;;;;0.15;0.15;;;;;;;20.87;40.00;102382.06;5125510;28;20039;-32
2022/04/29 05:03:10;;;;;;;0.10;0.10;;;;;;;20.87;39.73;102389.53;5122271;28;20035;-30
2022/04/29 05:05:36;;;;;;;0.20;0.20;;;;;;;20.86;39.85;102383.16;5101076;28;20050;-30
2022/04/29 05:08:02;;;;;;;0.10;0.10;;;;;;;20.76;40.04;102378.31;5124951;28;20513;-36
2022/04/29 05:10:27;;;;;;;0.10;0.10;;;;;;;20.70;40.12;102382.09;5119079;28;20339;-38
2022/04/29 05:12:53;;;;;;;0.10;0.10;;;;;;;20.69;40.00;102377.66;5122878;28;20050;-42
2022/04/29 05:15:19;;;;;;;0.10;0.10;;;;;;;20.59;40.65;102373.91;5117284;28;20401;-30
2022/04/29 05:17:44;;;;;;;0.10;0.10;;;;;;;20.78;40.41;102378.06;5125066;28;20444;-31
2022/04/29 05:20:12;;;;;;;0.10;0.10;;;;;;;20.88;40.70;102375.41;5123120;28;20043;-32
2022/04/29 05:22:38;;;;;;;;;;;;;;;20.90;40.45;102367.69;5106499;28;20487;-33
2022/04/29 05:25:05;;;;;;;0.10;0.10;;;;;;;20.93;40.25;102378.25;5104373;28;19927;-31
2022/04/29 05:27:31;;;;;;;0.20;0.20;;;;;;;20.95;40.38;102375.22;5127206;28;20135;-34
2022/04/29 05:29:57;;;;;;;0.20;0.20;;;;;;;20.96;40.08;102377.75;5115573;28;20044;-32
2022/04/29 05:32:24;;;;;;;0.10;0.10;;;;;;;20.99;40.07;102373.63;5120395;28;20486;-29
2022/04/29 05:34:49;;;;;;;0.13;0.13;;;;;;;20.94;39.92;102373.53;5119418;28;20079;-31
2022/04/29 05:37:15;;;;;;;0.10;0.10;;;;;;;21.00;39.89;102369.75;5115166;27;20040;-29
2022/04/29 05:42:27;;;;;;;0.10;0.10;;;;;;;21.04;39.70;102376.44;5104594;28;20130;-30
2022/04/29 05:44:53;;;;;;;0.10;0.10;;;;;;;21.03;39.74;102383.94;5117508;28;20054;-30
2022/04/29 05:47:19;;;;;;;0.10;0.10;;;;;;;21.07;39.89;102380.63;5106990;28;20155;-30
2022/04/29 05:49:44;;;;;;;0.10;0.10;;;;;;;21.06;39.69;102385.31;5119009;28;20446;-31
2022/04/29 05:52:11;;;;;;;0.20;0.20;;;;;;;21.08;39.50;102385.91;5103041;28;20297;-32
2022/04/29 05:54:37;;;;;;;0.10;0.10;;;;;;;21.10;39.83;102393.97;5119826;28;20081;-30
2022/04/29 05:57:09;;;;;;;0.10;0.10;;;;;;;21.11;39.69;102379.84;5098320;28;20044;-30
2022/04/29 05:59:35;;;;;;;0.10;0.10;;;;;;;21.12;39.60;102384.31;5114242;28;20095;-33
2022/04/29 06:02:00;;;;;;;0.10;0.10;;;;;;;21.12;39.72;102395.38;5116535;28;20444;-30
2022/04/29 06:04:26;;;;;;;0.10;0.10;;;;;;;21.15;39.51;102396.78;5111108;28;20062;-30
2022/04/29 06:06:52;;;;;;;0.10;0.10;;;;;;;21.14;39.56;102393.19;5116356;27;20067;-30
2022/04/29 06:09:18;;;;;;;0.10;0.10;;;;;;;21.15;39.64;102397.63;5117278;27;20258;-30
2022/04/29 06:11:45;;;;;;;0.20;0.20;;;;;;;21.16;39.69;102381.88;5118285;28;20125;-29
2022/04/29 06:14:10;;;;;;;0.20;0.20;;;;;;;21.17;39.41;102387.13;5113814;28;20485;-32
2022/04/29 06:16:36;;;;;;;0.20;0.20;;;;;;;21.19;39.57;102386.88;5112561;27;20088;-31
2022/04/29 06:19:02;;;;;;;0.20;0.20;;;;;;;21.19;39.57;102387.69;5112263;28;20479;-30
2022/04/29 06:21:27;;;;;;;0.10;0.10;;;;;;;21.22;39.63;102400.22;5112705;28;20054;-33
2022/04/29 06:23:53;;;;;;;0.10;0.10;;;;;;;21.22;39.63;102394.66;5111081;28;20070;-35
2022/04/29 06:26:19;;;;;;;0.20;0.20;;;;;;;21.23;39.62;102394.41;5113565;28;20053;-32
2022/04/29 06:28:44;;;;;;;0.20;0.20;;;;;;;21.24;39.54;102387.78;5122257;28;20049;-30
2022/04/29 06:31:11;;;;;;;0.10;0.10;;;;;;;21.24;39.34;102395.22;5112823;28;20500;-29
2022/04/29 06:33:38;;;;;;;0.10;0.10;;;;;;;21.25;39.38;102396.94;5113333;28;20680;-30
2022/04/29 06:36:06;;;;;;;0.10;0.10;;;;;;;21.25;39.42;102394.16;5110577;27;20634;-29
2022/04/29 06:38:31;;;;;;;0.10;0.10;;;;;;;21.26;39.38;102393.88;5109227;28;20158;-33
2022/04/29 06:40:57;;;;;;;0.10;0.10;;;;;;;21.28;39.35;102397.22;5095733;28;20103;-37
2022/04/29 06:43:23;;;;;;;0.10;0.10;;;;;;;21.28;39.34;102393.63;5110973;27;20077;-31
2022/04/29 06:45:49;;;;;;;0.20;0.20;;;;;;;21.28;39.37;102401.94;5091345;27;20413;-31
2022/04/29 06:48:15;;;;;;;0.17;0.17;;;;;;;21.27;39.41;102403.03;5096298;28;20485;-31
2022/04/29 06:50:41;;;;;;;0.10;0.10;;;;;;;21.28;39.50;102411.06;5110127;27;20084;-30
2022/04/29 06:53:07;;;;;;;0.20;0.20;;;;;;;21.27;39.54;102420.50;5115840;27;20078;-30
2022/04/29 06:55:37;;;;;;;0.20;0.20;;;;;;;21.28;39.32;102411.06;5107510;27;20185;-35
2022/04/29 06:58:02;;;;;;;0.10;0.10;;;;;;;21.26;39.51;102407.75;5106475;27;20127;-32
2022/04/29 07:00:28;;;;;;;0.10;0.10;;;;;;;21.26;39.54;102410.50;5107950;27;20047;-31
2022/04/29 07:02:56;;;;;;;0.10;0.10;;;;;;;21.26;39.34;102426.31;5103709;27;20485;-31
2022/04/29 07:05:23;;;;;;;0.10;0.10;;;;;;;21.26;39.41;102416.06;5088115;28;20096;-31
2022/04/29 07:07:50;;;;;;;0.10;0.10;;;;;;;21.26;39.33;102406.91;5077424;27;20085;-30
2022/04/29 07:10:16;;;;;;;0.10;0.10;;;;;;;21.25;39.54;102397.75;5106907;28;20078;-30
2022/04/29 07:12:43;;;;;;;0.10;0.10;;;;;;;21.26;39.21;102390.28;5088535;27;20137;-30
2022/04/29 07:15:12;;;;;;;0.17;0.17;;;;;;;21.27;39.33;102405.81;5114536;28;20074;-30
2022/04/29 07:17:39;;;;;;;0.10;0.10;;;;;;;21.26;39.41;102398.59;5078033;28;20122;-30
2022/04/29 07:20:06;;;;;;;0.10;0.10;;;;;;;21.25;39.58;102408.84;5111179;27;20138;-31
2022/04/29 07:22:33;;;;;;;0.10;0.10;;;;;;;21.25;39.59;102397.75;5116848;28;20118;-30
2022/04/29 07:24:59;;;;;;;0.10;0.10;;;;;;;21.25;39.43;102408.84;5118294;28;20393;-31
2022/04/29 07:27:27;;;;;;;0.10;0.10;;;;;;;21.25;39.44;102408.84;5114188;27;20055;-31
2022/04/29 07:29:53;;;;;;;0.15;0.15;;;;;;;21.25;39.52;102405.25;5083851;28;20130;-30
2022/04/29 07:32:20;;;;;;;0.10;0.10;;;;;;;21.25;39.41;102408.00;5122282;27;20047;-32
2022/04/29 07:43:02;;;;;;;0.10;0.10;;;;;;;21.17;39.22;102395.44;5101148;28;20134;-33
2022/04/29 07:45:28;;;;;;;0.13;0.13;;;;;;;21.21;39.36;102396.59;5115297;28;21169;-30
2022/04/29 07:47:56;;;;;;;0.10;0.10;;;;;;;21.23;39.23;102399.94;5124420;28;20570;-31
2022/04/29 07:50:21;;;;;;;0.10;0.10;;;;;;;21.24;39.42;102403.53;5102528;27;20549;-30
2022/04/29 07:52:53;;;;;;;0.10;0.10;;;;;;;21.24;39.16;102396.09;5112504;27;20051;-31
2022/04/29 07:55:19;;;;;;;0.20;0.20;;;;;;;21.26;39.22;102404.13;5117479;27;20069;-30
2022/04/29 07:57:44;;;;;;;0.10;0.10;;;;;;;21.27;39.14;102400.25;5109272;27;20051;-30
2022/04/29 08:00:14;;;;;;;0.20;0.20;;;;;;;21.28;39.09;102402.75;5096958;27;20050;-33
2022/04/29 08:02:40;;;;;;;0.10;0.10;;;;;;;21.29;39.20;102398.09;5107416;28;20177;-30
2022/04/29 08:05:06;;;;;;;0.40;0.40;;;;;;;21.29;39.40;102395.31;5115039;28;20056;-31
2022/04/29 08:07:33;;;;;;;0.10;0.10;;;;;;;21.30;39.06;102400.59;5107336;28;20360;-30
2022/04/29 08:09:59;;;;;;;0.10;0.10;;;;;;;21.32;39.13;102402.28;5112765;28;20134;-32
2022/04/29 08:12:26;;;;;;;0.10;0.10;;;;;;;21.30;39.28;102403.34;5103021;28;20091;-29
2022/04/29 08:14:52;;;;;;;0.10;0.10;;;;;;;21.32;39.30;102399.50;5116351;28;20106;-29
2022/04/29 08:17:19;;;;;;;0.20;0.20;;;;;;;21.32;39.11;102405.88;5117632;28;20322;-31
2022/04/29 08:19:45;;;;;;;0.10;0.10;;;;;;;21.33;39.10;102407.59;5112032;27;20116;-29
2022/04/29 08:22:11;;;;;;;0.10;0.10;;;;;;;21.33;39.29;102407.59;5089241;28;20051;-31
2022/04/29 08:24:37;;;;;;;0.10;0.10;;;;;;;21.34;39.36;102408.41;5109448;27;20076;-29
2022/04/29 08:27:03;;;;;;;0.10;0.10;;;;;;;21.35;39.14;102410.91;5115627;27;20043;-29
2022/04/29 08:29:29;;;;;;;0.10;0.10;;;;;;;21.36;39.07;102411.75;5121087;27;20078;-30
2022/04/29 08:31:54;;;;;;;0.10;0.10;;;;;;;21.35;39.07;102413.69;5114655;27;20055;-30
2022/04/29 08:34:20;;;;;;;0.10;0.10;;;;;;;21.37;39.18;102410.66;5112898;27;20043;-31
2022/04/29 08:36:46;;;;;;;0.10;0.10;;;;;;;21.37;39.17;102413.41;5115103;27;20561;-33
2022/04/29 08:39:12;;;;;;;0.20;0.20;;;;;;;21.37;38.92;102405.94;5110864;27;20047;-31
2022/04/29 08:41:39;;;;;;;0.10;0.10;;;;;;;21.38;39.02;102415.94;5110226;27;20470;-31
2022/04/29 08:44:08;;;;;;;0.15;0.15;;;;;;;21.38;39.07;102407.63;5113135;27;20059;-30
2022/04/29 08:46:33;;;;;;;0.10;0.10;;;;;;;21.39;39.01;102408.47;5113294;28;20058;-30
2022/04/29 08:49:01;;;;;;;0.10;0.10;;;;;;;21.40;39.05;102410.13;5116187;28;20126;-31
2022/04/29 08:51:27;;;;;;;0.10;0.10;;;;;;;21.39;39.15;102406.53;5115460;28;20043;-32
2022/04/29 08:53:53;;;;;;;0.10;0.10;;;;;;;21.38;39.04;102407.63;5120581;28;20504;-32
2022/04/29 08:59:05;;;;;;;0.10;0.10;;;;;;;21.32;38.74;102399.50;5098498;27;20501;-31
2022/04/29 09:01:30;;;;;;;0.20;0.20;;;;;;;21.36;38.91;102401.50;5119602;28;20070;-33
2022/04/29 09:03:56;;;;;;;0.20;0.20;;;;;;;21.38;38.84;102402.09;5118269;27;20059;-31
2022/04/29 09:06:22;;;;;;;0.20;0.20;;;;;;;21.39;38.85;102402.94;5119456;28;20047;-31
2022/04/29 09:08:48;;;;;;;0.15;0.15;;;;;;;21.41;38.91;102403.50;5115624;28;20100;-31
2022/04/29 09:11:23;;;;;;;0.10;0.10;;;;;;;21.41;38.85;102407.09;5100516;28;20490;-30
2022/04/29 09:13:49;;;;;;;0.20;0.20;;;;;;;21.42;38.75;102405.19;5101305;28;20051;-30
2022/04/29 09:16:15;;;;;;;0.10;0.10;;;;;;;21.43;38.66;102409.63;5119346;28;20451;-31
2022/04/29 09:18:49;;;;;;;0.20;0.20;;;;;;;21.42;38.72;102403.25;5116245;28;20054;-30
2022/04/29 09:21:17;;;;;;;0.20;0.20;;;;;;;21.10;37.53;102405.03;5097590;28;20501;-30
2022/04/29 09:23:45;;;;;;;0.10;0.10;;;;;;;21.27;37.97;102412.19;5101355;28;20150;-31
2022/04/29 09:26:28;;;;;;;0.10;0.10;;;;;;;21.37;37.95;102399.56;5118826;28;20134;-30
2022/04/29 09:28:55;;;;;;;0.20;0.20;;;;;;;21.21;37.79;102406.84;5099742;28;20054;-30
2022/04/29 09:31:21;;;;;;;0.10;0.10;;;;;;;21.37;37.84;102403.16;5095732;28;20565;-30
2022/04/29 09:34:07;;;;;;;0.10;0.10;;;;;;;21.44;38.06;102400.22;5086788;27;20039;-31
2022/04/29 09:36:32;;;;;;;0.10;0.10;;;;;;;21.46;37.90;102398.88;5107910;27;20047;-36
2022/04/29 09:39:35;;;;;;;0.10;0.10;;;;;;;21.22;36.35;102401.03;5107641;27;20039;-31
2022/04/29 09:41:58;;;;;;;0.10;0.10;;;;;;;21.39;37.72;102405.69;5095556;28;20111;-30
2022/04/29 09:44:27;;;;;;;0.10;0.10;;;;;;;21.22;36.90;102406.59;5111611;27;20338;-33
2022/04/29 09:46:53;;;;;;;0.20;0.20;;;;;;;21.36;37.60;102409.81;5096423;28;20142;-30
2022/04/29 09:49:19;;;;;;;0.10;0.10;;;;;;;21.47;37.62;102408.84;5112496;28;20105;-31
2022/04/29 09:51:48;;;;;;;0.10;0.10;;;;;;;21.51;37.40;102410.00;5118183;28;20095;-29
2022/04/29 09:54:16;;;;;;;0.10;0.10;;;;;;;21.52;37.56;102408.91;5119541;27;20047;-34
2022/04/29 09:56:44;;;;;;;0.10;0.10;;;;;;;21.57;37.77;102407.28;5101824;28;20603;-31
2022/04/29 09:59:10;;;;;;;0.10;0.10;;;;;;;21.58;37.80;102395.91;5097750;28;20074;-31
2022/04/29 10:01:36;;;;;;;0.10;0.10;;;;;;;21.60;37.76;102406.75;5079855;28;20463;-30
2022/04/29 10:04:03;;;;;;;0.10;0.10;;;;;;;21.60;37.91;102404.81;5116776;28;20100;-31
2022/04/29 10:06:31;;;;;;;0.20;0.20;;;;;;;21.39;37.80;102412.06;5118670;27;20080;-33
2022/04/29 10:08:58;;;;;;;0.10;0.10;;;;;;;21.57;37.88;102404.50;5095801;28;20043;-29
2022/04/29 10:11:27;;;;;;;0.10;0.10;;;;;;;21.64;37.78;102405.97;5082353;28;20047;-30
2022/04/29 10:13:53;;;;;;;;;;;;;;;21.64;37.91;102405.97;5117625;27;20593;-31
2022/04/29 10:16:19;;;;;;;0.20;0.20;;;;;;;21.64;37.60;102399.59;5100304;27;20049;-34
2022/04/29 10:21:45;;;;;;;0.10;0.10;;;;;;;21.68;37.69;102397.97;5104768;28;20500;-30
2022/04/29 10:24:11;;;;;;;;;;;;;;;21.68;37.84;102406.28;5099755;28;20134;-31
2022/04/29 10:26:36;;;;;;;0.10;0.10;;;;;;;21.69;37.72;102402.41;5121407;28;20516;-30
2022/04/29 10:29:02;;;;;;;0.20;0.20;;;;;;;21.69;37.75;102400.47;5124162;28;20057;-31
2022/04/29 10:31:29;;;;;;;0.20;0.20;;;;;;;21.71;37.93;102395.47;5099710;28;20049;-31
2022/04/29 10:33:54;;;;;;;0.10;0.10;;;;;;;21.71;37.80;102392.72;5120200;27;20092;-30
2022/04/29 10:36:24;;;;;;;0.10;0.10;;;;;;;21.72;37.75;102391.63;5115246;28;20051;-31
2022/04/29 10:39:00;;;;;;;0.15;0.15;;;;;;;21.73;37.95;102395.25;5105723;27;20133;-31
2022/04/29 10:41:26;;;;;;;0.10;0.10;;;;;;;21.73;37.96;102387.75;5110749;28;20334;-31
2022/04/29 10:46:36;;;;;;;0.10;0.10;;;;;;;21.75;37.99;102395.81;5141843;27;20224;-28
2022/04/29 10:52:02;;;;;;;0.10;0.10;;;;;;;21.77;37.87;102382.53;5146774;27;20210;-30
2022/04/29 10:54:40;;;;;;;0.10;0.10;;;;;;;21.77;37.98;102385.31;5134657;27;20133;-29
2022/04/29 10:57:08;;;;;;;0.10;0.10;;;;;;;21.76;37.93;102387.25;5147850;27;20357;-29
2022/04/29 10:59:54;;;;;;;0.13;0.13;;;;;;;21.77;38.05;102375.03;5128147;27;20034;-31
2022/04/29 11:02:25;;;;;;;0.10;0.10;;;;;;;21.77;37.85;102368.66;5135735;27;20421;-32
2022/04/29 11:04:52;;;;;;;0.20;0.20;;;;;;;21.78;38.00;102373.09;5148957;27;20050;-32
2022/04/29 11:07:45;;;;;;;0.20;0.20;;;;;;;21.60;37.95;102374.31;5128074;27;20065;-31
2022/04/29 11:10:14;;;;;;;0.20;0.20;;;;;;;21.75;37.71;102362.53;5136377;27;20074;-32
2022/04/29 11:12:41;;;;;;;0.20;0.20;;;;;;;21.80;37.90;102357.03;5130000;27;20253;-30
2022/04/29 11:15:10;;;;;;;0.10;0.10;;;;;;;21.81;37.91;102364.25;5134416;27;20099;-31
2022/04/29 11:17:37;;;;;;;0.10;0.10;;;;;;;21.80;37.87;102362.56;5129461;27;20065;-31
2022/04/29 11:20:22;;;;;;;0.10;0.10;;;;;;;21.82;37.88;102362.31;5126840;27;20129;-31
2022/04/29 11:25:55;;;;;;;0.20;0.20;;;;;;;21.81;38.03;102355.94;5126880;27;20666;-30
2022/04/29 11:28:21;;;;;;;0.10;0.10;;;;;;;21.82;37.83;102357.59;5131519;27;20049;-31
2022/04/29 11:30:48;;;;;;;0.10;0.10;;;;;;;21.83;37.88;102344.56;5128565;27;20176;-30
2022/04/29 11:33:14;;;;;;;0.10;0.10;;;;;;;21.86;37.78;102344.88;5110062;27;20070;-32
2022/04/29 11:35:40;;;;;;;0.10;0.10;;;;;;;21.91;37.77;102339.38;5152833;27;20078;-29
2022/04/29 11:38:08;;;;;;;0.17;0.17;;;;;;;21.90;38.00;102346.03;5150180;27;20042;-30
2022/04/29 11:40:38;;;;;;;0.10;0.10;;;;;;;21.90;37.81;102343.25;5154258;27;20137;-30
2022/04/29 11:43:08;;;;;;;0.10;0.10;;;;;;;21.90;37.77;102334.94;5153883;27;20104;-31
2022/04/29 11:45:33;;;;;;;0.10;0.10;;;;;;;21.90;37.81;102340.47;5135649;27;20074;-32
2022/04/29 11:48:07;;;;;;;0.10;0.10;;;;;;;21.93;37.74;102342.72;5154597;27;20473;-31
2022/04/29 11:50:36;;;;;;;0.10;0.10;;;;;;;21.97;37.81;102331.91;5152136;27;20142;-30